sensor_id;sensor_type;location;lat;lon;timestamp;P1;durP1;ratioP1;P2;durP2;ratioP2
37633;SDS011;32048;49.902;22.508;2023-07-13T00:01:54;11.95;;;8.25;;
37633;SDS011;32048;49.902;22.508;2023-07-13T00:04:22;11.07;;;8.48;;
37633;SDS011;32048;49.902;22.508;2023-07-13T00:06:52;10.95;;;8.60;;
37633;SDS011;32048;49.902;22.508;2023-07-13T00:09:20;12.02;;;9.02;;
37633;SDS011;32048;49.902;22.508;2023-07-13T00:11:54;13.25;;;8.68;;
37633;SDS011;32048;49.902;22.508;2023-07-13T00:14:23;12.45;;;8.90;;
37633;SDS011;32048;49.902;22.508;2023-07-13T00:16:51;11.02;;;8.45;;
37633;SDS011;32048;49.902;22.508;2023-07-13T00:19:19;12.23;;;8.45;;
37633;SDS011;32048;49.902;22.508;2023-07-13T00:21:46;13.07;;;9.07;;
37633;SDS011;32048;49.902;22.508;2023-07-13T00:24:14;14.32;;;8.93;;
37633;SDS011;32048;49.902;22.508;2023-07-13T00:26:45;10.52;;;8.27;;
37633;SDS011;32048;49.902;22.508;2023-07-13T00:29:12;12.90;;;9.27;;
37633;SDS011;32048;49.902;22.508;2023-07-13T00:31:40;13.38;;;8.85;;
37633;SDS011;32048;49.902;22.508;2023-07-13T00:34:07;9.80;;;8.52;;
37633;SDS011;32048;49.902;22.508;2023-07-13T00:36:34;14.48;;;8.50;;
37633;SDS011;32048;49.902;22.508;2023-07-13T00:39:02;11.95;;;9.10;;
37633;SDS011;32048;49.902;22.508;2023-07-13T00:41:30;10.68;;;8.25;;
37633;SDS011;32048;49.902;22.508;2023-07-13T00:43:58;12.63;;;8.50;;
37633;SDS011;32048;49.902;22.508;2023-07-13T00:46:27;12.98;;;8.48;;
37633;SDS011;32048;49.902;22.508;2023-07-13T00:49:00;10.18;;;8.93;;
37633;SDS011;32048;49.902;22.508;2023-07-13T00:51:32;10.77;;;8.95;;
37633;SDS011;32048;49.902;22.508;2023-07-13T00:54:04;14.15;;;9.25;;
37633;SDS011;32048;49.902;22.508;2023-07-13T00:56:33;12.90;;;8.88;;
37633;SDS011;32048;49.902;22.508;2023-07-13T00:59:02;12.75;;;8.90;;
37633;SDS011;32048;49.902;22.508;2023-07-13T01:01:31;12.45;;;9.23;;
37633;SDS011;32048;49.902;22.508;2023-07-13T01:03:58;11.30;;;9.00;;
37633;SDS011;32048;49.902;22.508;2023-07-13T01:06:25;11.35;;;8.57;;
37633;SDS011;32048;49.902;22.508;2023-07-13T01:08:52;11.75;;;8.73;;
37633;SDS011;32048;49.902;22.508;2023-07-13T01:11:21;12.02;;;9.23;;
37633;SDS011;32048;49.902;22.508;2023-07-13T01:13:49;11.98;;;9.40;;
37633;SDS011;32048;49.902;22.508;2023-07-13T01:16:24;14.10;;;8.95;;
37633;SDS011;32048;49.902;22.508;2023-07-13T01:18:54;10.82;;;8.60;;
37633;SDS011;32048;49.902;22.508;2023-07-13T01:21:25;13.02;;;9.48;;
37633;SDS011;32048;49.902;22.508;2023-07-13T01:23:53;13.35;;;9.40;;
37633;SDS011;32048;49.902;22.508;2023-07-13T01:26:20;12.70;;;9.60;;
37633;SDS011;32048;49.902;22.508;2023-07-13T01:28:47;12.55;;;9.80;;
37633;SDS011;32048;49.902;22.508;2023-07-13T01:31:14;11.05;;;9.10;;
37633;SDS011;32048;49.902;22.508;2023-07-13T01:33:41;10.82;;;8.90;;
37633;SDS011;32048;49.902;22.508;2023-07-13T01:36:09;11.77;;;9.15;;
37633;SDS011;32048;49.902;22.508;2023-07-13T01:41:04;12.38;;;9.00;;
37633;SDS011;32048;49.902;22.508;2023-07-13T01:43:32;12.55;;;9.05;;
37633;SDS011;32048;49.902;22.508;2023-07-13T01:45:59;10.50;;;9.02;;
37633;SDS011;32048;49.902;22.508;2023-07-13T01:48:46;14.68;;;9.23;;
37633;SDS011;32048;49.902;22.508;2023-07-13T01:51:13;11.75;;;9.35;;
37633;SDS011;32048;49.902;22.508;2023-07-13T01:56:09;13.00;;;9.55;;
37633;SDS011;32048;49.902;22.508;2023-07-13T01:58:36;10.52;;;8.75;;
37633;SDS011;32048;49.902;22.508;2023-07-13T02:01:03;9.85;;;8.27;;
37633;SDS011;32048;49.902;22.508;2023-07-13T02:03:31;12.25;;;9.18;;
37633;SDS011;32048;49.902;22.508;2023-07-13T02:05:58;12.32;;;9.05;;
37633;SDS011;32048;49.902;22.508;2023-07-13T02:08:25;12.20;;;9.02;;
37633;SDS011;32048;49.902;22.508;2023-07-13T02:10:52;12.15;;;9.23;;
37633;SDS011;32048;49.902;22.508;2023-07-13T02:13:19;11.10;;;8.98;;
37633;SDS011;32048;49.902;22.508;2023-07-13T02:15:49;9.75;;;8.68;;
37633;SDS011;32048;49.902;22.508;2023-07-13T02:18:17;11.35;;;8.80;;
37633;SDS011;32048;49.902;22.508;2023-07-13T02:20:44;11.50;;;9.18;;
37633;SDS011;32048;49.902;22.508;2023-07-13T02:23:11;12.77;;;8.80;;
37633;SDS011;32048;49.902;22.508;2023-07-13T02:25:38;10.77;;;8.73;;
37633;SDS011;32048;49.902;22.508;2023-07-13T02:28:06;11.68;;;8.98;;
37633;SDS011;32048;49.902;22.508;2023-07-13T02:30:33;14.55;;;9.00;;
37633;SDS011;32048;49.902;22.508;2023-07-13T02:33:01;10.95;;;9.23;;
37633;SDS011;32048;49.902;22.508;2023-07-13T02:35:29;12.00;;;9.13;;
37633;SDS011;32048;49.902;22.508;2023-07-13T02:37:56;11.60;;;8.75;;
37633;SDS011;32048;49.902;22.508;2023-07-13T02:40:23;15.15;;;9.73;;
37633;SDS011;32048;49.902;22.508;2023-07-13T02:42:50;12.48;;;8.85;;
37633;SDS011;32048;49.902;22.508;2023-07-13T02:45:17;10.18;;;8.55;;
37633;SDS011;32048;49.902;22.508;2023-07-13T02:47:44;12.88;;;8.60;;
37633;SDS011;32048;49.902;22.508;2023-07-13T02:50:11;10.18;;;8.40;;
37633;SDS011;32048;49.902;22.508;2023-07-13T02:52:38;12.10;;;8.80;;
37633;SDS011;32048;49.902;22.508;2023-07-13T02:55:05;12.02;;;8.05;;
37633;SDS011;32048;49.902;22.508;2023-07-13T02:57:33;9.52;;;7.93;;
37633;SDS011;32048;49.902;22.508;2023-07-13T03:00:00;10.32;;;8.07;;
37633;SDS011;32048;49.902;22.508;2023-07-13T03:02:32;11.50;;;8.18;;
37633;SDS011;32048;49.902;22.508;2023-07-13T03:05:00;9.25;;;8.02;;
37633;SDS011;32048;49.902;22.508;2023-07-13T03:07:27;10.18;;;8.35;;
37633;SDS011;32048;49.902;22.508;2023-07-13T03:09:57;11.60;;;8.13;;
37633;SDS011;32048;49.902;22.508;2023-07-13T03:12:25;13.23;;;8.77;;
37633;SDS011;32048;49.902;22.508;2023-07-13T03:14:53;11.30;;;8.98;;
37633;SDS011;32048;49.902;22.508;2023-07-13T03:17:21;11.50;;;8.88;;
37633;SDS011;32048;49.902;22.508;2023-07-13T03:19:48;10.07;;;7.68;;
37633;SDS011;32048;49.902;22.508;2023-07-13T03:22:18;10.55;;;8.73;;
37633;SDS011;32048;49.902;22.508;2023-07-13T03:24:46;9.68;;;8.05;;
37633;SDS011;32048;49.902;22.508;2023-07-13T03:27:13;10.50;;;7.82;;
37633;SDS011;32048;49.902;22.508;2023-07-13T03:29:41;11.30;;;7.93;;
37633;SDS011;32048;49.902;22.508;2023-07-13T03:32:08;10.18;;;8.00;;
37633;SDS011;32048;49.902;22.508;2023-07-13T03:34:36;11.48;;;8.25;;
37633;SDS011;32048;49.902;22.508;2023-07-13T03:37:03;9.57;;;7.80;;
37633;SDS011;32048;49.902;22.508;2023-07-13T03:39:34;11.70;;;8.20;;
37633;SDS011;32048;49.902;22.508;2023-07-13T03:42:01;11.45;;;7.82;;
37633;SDS011;32048;49.902;22.508;2023-07-13T03:44:28;9.65;;;7.80;;
37633;SDS011;32048;49.902;22.508;2023-07-13T03:46:55;9.35;;;7.78;;
37633;SDS011;32048;49.902;22.508;2023-07-13T03:49:22;10.45;;;7.50;;
37633;SDS011;32048;49.902;22.508;2023-07-13T03:51:49;10.57;;;7.80;;
37633;SDS011;32048;49.902;22.508;2023-07-13T03:54:19;11.20;;;8.00;;
37633;SDS011;32048;49.902;22.508;2023-07-13T03:56:47;13.07;;;7.88;;
37633;SDS011;32048;49.902;22.508;2023-07-13T03:59:14;10.75;;;8.15;;
37633;SDS011;32048;49.902;22.508;2023-07-13T04:01:42;10.73;;;8.20;;
37633;SDS011;32048;49.902;22.508;2023-07-13T04:04:10;13.23;;;7.75;;
37633;SDS011;32048;49.902;22.508;2023-07-13T04:06:37;9.38;;;7.72;;
37633;SDS011;32048;49.902;22.508;2023-07-13T04:09:04;10.20;;;7.68;;
37633;SDS011;32048;49.902;22.508;2023-07-13T04:11:33;11.75;;;7.85;;
37633;SDS011;32048;49.902;22.508;2023-07-13T04:14:00;8.13;;;6.97;;
37633;SDS011;32048;49.902;22.508;2023-07-13T04:16:28;9.27;;;7.47;;
37633;SDS011;32048;49.902;22.508;2023-07-13T04:18:55;14.13;;;7.93;;
37633;SDS011;32048;49.902;22.508;2023-07-13T04:21:27;11.25;;;7.95;;
37633;SDS011;32048;49.902;22.508;2023-07-13T04:23:56;8.40;;;7.35;;
37633;SDS011;32048;49.902;22.508;2023-07-13T04:26:24;12.98;;;8.85;;
37633;SDS011;32048;49.902;22.508;2023-07-13T04:28:51;10.52;;;7.82;;
37633;SDS011;32048;49.902;22.508;2023-07-13T04:31:19;10.68;;;6.93;;
37633;SDS011;32048;49.902;22.508;2023-07-13T04:33:47;9.50;;;7.45;;
37633;SDS011;32048;49.902;22.508;2023-07-13T04:36:15;10.18;;;7.47;;
37633;SDS011;32048;49.902;22.508;2023-07-13T04:38:42;12.30;;;7.78;;
37633;SDS011;32048;49.902;22.508;2023-07-13T04:41:10;10.57;;;7.00;;
37633;SDS011;32048;49.902;22.508;2023-07-13T04:43:37;9.55;;;7.22;;
37633;SDS011;32048;49.902;22.508;2023-07-13T04:46:05;12.20;;;6.95;;
37633;SDS011;32048;49.902;22.508;2023-07-13T04:48:35;10.13;;;7.55;;
37633;SDS011;32048;49.902;22.508;2023-07-13T04:51:02;10.75;;;7.45;;
37633;SDS011;32048;49.902;22.508;2023-07-13T04:53:30;8.95;;;7.45;;
37633;SDS011;32048;49.902;22.508;2023-07-13T04:55:59;10.88;;;8.40;;
37633;SDS011;32048;49.902;22.508;2023-07-13T04:58:26;8.70;;;7.35;;
37633;SDS011;32048;49.902;22.508;2023-07-13T05:00:59;10.80;;;7.75;;
37633;SDS011;32048;49.902;22.508;2023-07-13T05:03:28;11.23;;;8.07;;
37633;SDS011;32048;49.902;22.508;2023-07-13T05:05:56;12.15;;;8.23;;
37633;SDS011;32048;49.902;22.508;2023-07-13T05:08:27;11.05;;;7.60;;
37633;SDS011;32048;49.902;22.508;2023-07-13T05:10:54;11.55;;;8.20;;
37633;SDS011;32048;49.902;22.508;2023-07-13T05:13:22;10.00;;;8.85;;
37633;SDS011;32048;49.902;22.508;2023-07-13T05:15:56;11.82;;;8.70;;
37633;SDS011;32048;49.902;22.508;2023-07-13T05:18:25;12.88;;;8.63;;
37633;SDS011;32048;49.902;22.508;2023-07-13T05:20:59;11.13;;;8.18;;
37633;SDS011;32048;49.902;22.508;2023-07-13T05:23:29;9.70;;;8.70;;
37633;SDS011;32048;49.902;22.508;2023-07-13T05:25:57;14.40;;;9.23;;
37633;SDS011;32048;49.902;22.508;2023-07-13T05:28:25;10.60;;;8.73;;
37633;SDS011;32048;49.902;22.508;2023-07-13T05:30:54;14.80;;;9.02;;
37633;SDS011;32048;49.902;22.508;2023-07-13T05:33:22;10.60;;;8.82;;
37633;SDS011;32048;49.902;22.508;2023-07-13T05:35:50;12.00;;;9.75;;
37633;SDS011;32048;49.902;22.508;2023-07-13T05:38:17;10.40;;;8.55;;
37633;SDS011;32048;49.902;22.508;2023-07-13T05:40:45;10.40;;;8.55;;
37633;SDS011;32048;49.902;22.508;2023-07-13T05:43:13;10.43;;;8.52;;
37633;SDS011;32048;49.902;22.508;2023-07-13T05:45:40;11.35;;;8.07;;
37633;SDS011;32048;49.902;22.508;2023-07-13T05:48:07;12.02;;;8.48;;
37633;SDS011;32048;49.902;22.508;2023-07-13T05:50:35;12.82;;;8.18;;
37633;SDS011;32048;49.902;22.508;2023-07-13T05:53:03;11.75;;;8.27;;
37633;SDS011;32048;49.902;22.508;2023-07-13T05:55:30;11.43;;;8.45;;
37633;SDS011;32048;49.902;22.508;2023-07-13T05:58:00;11.68;;;8.80;;
37633;SDS011;32048;49.902;22.508;2023-07-13T06:00:27;15.68;;;8.80;;
37633;SDS011;32048;49.902;22.508;2023-07-13T06:02:55;20.55;;;9.23;;
37633;SDS011;32048;49.902;22.508;2023-07-13T06:05:23;12.65;;;10.65;;
37633;SDS011;32048;49.902;22.508;2023-07-13T06:08:11;16.15;;;12.23;;
37633;SDS011;32048;49.902;22.508;2023-07-13T06:11:26;21.92;;;13.30;;
37633;SDS011;32048;49.902;22.508;2023-07-13T06:15:17;18.02;;;16.10;;
37633;SDS011;32048;49.902;22.508;2023-07-13T06:17:59;18.40;;;16.33;;
37633;SDS011;32048;49.902;22.508;2023-07-13T06:20:39;20.95;;;16.52;;
37633;SDS011;32048;49.902;22.508;2023-07-13T06:23:07;22.37;;;15.87;;
37633;SDS011;32048;49.902;22.508;2023-07-13T06:25:42;19.08;;;16.75;;
37633;SDS011;32048;49.902;22.508;2023-07-13T06:28:10;20.48;;;17.90;;
37633;SDS011;32048;49.902;22.508;2023-07-13T06:30:40;23.35;;;18.35;;
37633;SDS011;32048;49.902;22.508;2023-07-13T06:33:08;19.50;;;17.40;;
37633;SDS011;32048;49.902;22.508;2023-07-13T06:35:40;22.08;;;17.50;;
37633;SDS011;32048;49.902;22.508;2023-07-13T06:38:08;19.90;;;17.38;;
37633;SDS011;32048;49.902;22.508;2023-07-13T06:40:35;23.85;;;17.90;;
37633;SDS011;32048;49.902;22.508;2023-07-13T06:43:02;19.15;;;15.60;;
37633;SDS011;32048;49.902;22.508;2023-07-13T06:45:29;18.70;;;14.63;;
37633;SDS011;32048;49.902;22.508;2023-07-13T06:47:56;20.00;;;16.75;;
37633;SDS011;32048;49.902;22.508;2023-07-13T06:50:23;23.95;;;17.88;;
37633;SDS011;32048;49.902;22.508;2023-07-13T06:52:51;24.42;;;17.75;;
37633;SDS011;32048;49.902;22.508;2023-07-13T06:55:19;20.23;;;15.05;;
37633;SDS011;32048;49.902;22.508;2023-07-13T06:57:46;18.70;;;15.63;;
37633;SDS011;32048;49.902;22.508;2023-07-13T07:00:13;23.23;;;19.02;;
37633;SDS011;32048;49.902;22.508;2023-07-13T07:02:55;22.85;;;19.20;;
37633;SDS011;32048;49.902;22.508;2023-07-13T07:05:22;21.85;;;18.15;;
37633;SDS011;32048;49.902;22.508;2023-07-13T07:07:53;19.13;;;15.60;;
37633;SDS011;32048;49.902;22.508;2023-07-13T07:11:19;17.63;;;15.65;;
37633;SDS011;32048;49.902;22.508;2023-07-13T07:13:54;14.85;;;12.73;;
37633;SDS011;32048;49.902;22.508;2023-07-13T07:19:37;16.88;;;13.13;;
37633;SDS011;32048;49.902;22.508;2023-07-13T07:22:05;15.30;;;12.73;;
37633;SDS011;32048;49.902;22.508;2023-07-13T07:24:32;15.88;;;12.57;;
37633;SDS011;32048;49.902;22.508;2023-07-13T07:26:59;17.58;;;11.70;;
37633;SDS011;32048;49.902;22.508;2023-07-13T07:29:29;11.57;;;9.73;;
37633;SDS011;32048;49.902;22.508;2023-07-13T07:32:00;13.57;;;9.63;;
37633;SDS011;32048;49.902;22.508;2023-07-13T07:34:32;12.55;;;10.25;;
37633;SDS011;32048;49.902;22.508;2023-07-13T07:37:00;12.93;;;10.38;;
37633;SDS011;32048;49.902;22.508;2023-07-13T07:39:30;11.38;;;8.77;;
37633;SDS011;32048;49.902;22.508;2023-07-13T07:41:58;10.35;;;7.60;;
37633;SDS011;32048;49.902;22.508;2023-07-13T07:44:25;14.18;;;8.48;;
37633;SDS011;32048;49.902;22.508;2023-07-13T07:46:54;11.57;;;8.68;;
37633;SDS011;32048;49.902;22.508;2023-07-13T07:49:21;13.63;;;8.45;;
37633;SDS011;32048;49.902;22.508;2023-07-13T07:51:49;10.75;;;7.65;;
37633;SDS011;32048;49.902;22.508;2023-07-13T07:54:16;8.85;;;6.95;;
37633;SDS011;32048;49.902;22.508;2023-07-13T07:57:03;10.50;;;7.65;;
37633;SDS011;32048;49.902;22.508;2023-07-13T07:59:33;10.60;;;8.07;;
37633;SDS011;32048;49.902;22.508;2023-07-13T08:02:03;10.55;;;8.35;;
37633;SDS011;32048;49.902;22.508;2023-07-13T08:07:53;11.38;;;8.90;;
37633;SDS011;32048;49.902;22.508;2023-07-13T08:13:45;10.95;;;8.63;;
37633;SDS011;32048;49.902;22.508;2023-07-13T08:16:13;10.20;;;8.50;;
37633;SDS011;32048;49.902;22.508;2023-07-13T08:18:40;10.88;;;9.00;;
37633;SDS011;32048;49.902;22.508;2023-07-13T08:23:50;12.82;;;8.75;;
37633;SDS011;32048;49.902;22.508;2023-07-13T08:26:17;10.40;;;8.68;;
37633;SDS011;32048;49.902;22.508;2023-07-13T08:28:46;11.00;;;7.93;;
37633;SDS011;32048;49.902;22.508;2023-07-13T08:31:14;9.13;;;7.90;;
37633;SDS011;32048;49.902;22.508;2023-07-13T08:33:42;8.57;;;7.63;;
37633;SDS011;32048;49.902;22.508;2023-07-13T08:36:09;7.85;;;7.05;;
37633;SDS011;32048;49.902;22.508;2023-07-13T08:38:36;10.20;;;7.65;;
37633;SDS011;32048;49.902;22.508;2023-07-13T08:41:14;10.88;;;8.60;;
37633;SDS011;32048;49.902;22.508;2023-07-13T08:43:45;10.32;;;7.35;;
37633;SDS011;32048;49.902;22.508;2023-07-13T08:46:21;8.32;;;6.47;;
37633;SDS011;32048;49.902;22.508;2023-07-13T08:48:59;9.35;;;6.88;;
37633;SDS011;32048;49.902;22.508;2023-07-13T08:57:14;8.30;;;6.38;;
37633;SDS011;32048;49.902;22.508;2023-07-13T09:00:44;7.05;;;5.88;;
37633;SDS011;32048;49.902;22.508;2023-07-13T09:09:29;6.50;;;5.90;;
37633;SDS011;32048;49.902;22.508;2023-07-13T09:15:41;9.20;;;5.55;;
37633;SDS011;32048;49.902;22.508;2023-07-13T09:18:28;18.60;;;7.50;;
37633;SDS011;32048;49.902;22.508;2023-07-13T09:21:15;7.22;;;4.65;;
37633;SDS011;32048;49.902;22.508;2023-07-13T09:23:46;5.50;;;4.93;;
37633;SDS011;32048;49.902;22.508;2023-07-13T09:26:16;5.97;;;4.50;;
37633;SDS011;32048;49.902;22.508;2023-07-13T09:28:51;5.93;;;5.28;;
37633;SDS011;32048;49.902;22.508;2023-07-13T09:31:36;7.28;;;4.93;;
37633;SDS011;32048;49.902;22.508;2023-07-13T09:34:11;6.78;;;5.13;;
37633;SDS011;32048;49.902;22.508;2023-07-13T09:36:41;5.88;;;4.97;;
37633;SDS011;32048;49.902;22.508;2023-07-13T09:39:29;9.13;;;5.60;;
37633;SDS011;32048;49.902;22.508;2023-07-13T09:45:32;5.07;;;4.25;;
37633;SDS011;32048;49.902;22.508;2023-07-13T09:48:11;5.07;;;4.03;;
37633;SDS011;32048;49.902;22.508;2023-07-13T09:50:42;7.00;;;4.15;;
37633;SDS011;32048;49.902;22.508;2023-07-13T09:53:14;5.30;;;4.60;;
37633;SDS011;32048;49.902;22.508;2023-07-13T09:55:44;5.43;;;4.63;;
37633;SDS011;32048;49.902;22.508;2023-07-13T09:58:18;5.10;;;4.38;;
37633;SDS011;32048;49.902;22.508;2023-07-13T10:00:58;5.72;;;4.95;;
37633;SDS011;32048;49.902;22.508;2023-07-13T10:03:28;8.95;;;6.18;;
37633;SDS011;32048;49.902;22.508;2023-07-13T10:06:01;9.07;;;5.68;;
37633;SDS011;32048;49.902;22.508;2023-07-13T10:08:43;7.68;;;5.40;;
37633;SDS011;32048;49.902;22.508;2023-07-13T10:11:17;8.18;;;5.70;;
37633;SDS011;32048;49.902;22.508;2023-07-13T10:13:50;5.88;;;4.75;;
37633;SDS011;32048;49.902;22.508;2023-07-13T10:16:24;7.60;;;4.63;;
37633;SDS011;32048;49.902;22.508;2023-07-13T10:19:02;4.75;;;4.15;;
37633;SDS011;32048;49.902;22.508;2023-07-13T10:21:36;9.07;;;4.40;;
37633;SDS011;32048;49.902;22.508;2023-07-13T10:24:15;3.90;;;3.50;;
37633;SDS011;32048;49.902;22.508;2023-07-13T10:29:47;4.57;;;3.70;;
37633;SDS011;32048;49.902;22.508;2023-07-13T10:32:20;4.53;;;3.60;;
37633;SDS011;32048;49.902;22.508;2023-07-13T10:34:50;4.45;;;3.28;;
37633;SDS011;32048;49.902;22.508;2023-07-13T10:37:20;6.38;;;3.65;;
37633;SDS011;32048;49.902;22.508;2023-07-13T10:39:55;4.63;;;3.53;;
37633;SDS011;32048;49.902;22.508;2023-07-13T10:44:59;7.78;;;4.13;;
37633;SDS011;32048;49.902;22.508;2023-07-13T10:47:26;6.68;;;4.47;;
37633;SDS011;32048;49.902;22.508;2023-07-13T10:49:56;4.25;;;3.85;;
37633;SDS011;32048;49.902;22.508;2023-07-13T10:55:37;5.65;;;4.00;;
37633;SDS011;32048;49.902;22.508;2023-07-13T11:03:36;4.40;;;4.00;;
37633;SDS011;32048;49.902;22.508;2023-07-13T11:06:15;5.95;;;4.47;;
37633;SDS011;32048;49.902;22.508;2023-07-13T11:08:56;6.13;;;4.80;;
37633;SDS011;32048;49.902;22.508;2023-07-13T11:13:57;6.93;;;5.15;;
37633;SDS011;32048;49.902;22.508;2023-07-13T11:16:43;6.25;;;5.13;;
37633;SDS011;32048;49.902;22.508;2023-07-13T11:27:42;11.60;;;6.60;;
37633;SDS011;32048;49.902;22.508;2023-07-13T11:32:44;7.90;;;7.10;;
37633;SDS011;32048;49.902;22.508;2023-07-13T11:35:15;8.20;;;7.20;;
37633;SDS011;32048;49.902;22.508;2023-07-13T11:37:48;11.15;;;6.90;;
37633;SDS011;32048;49.902;22.508;2023-07-13T11:40:16;8.82;;;7.60;;
37633;SDS011;32048;49.902;22.508;2023-07-13T11:42:43;8.57;;;7.53;;
37633;SDS011;32048;49.902;22.508;2023-07-13T11:45:21;8.38;;;7.32;;
37633;SDS011;32048;49.902;22.508;2023-07-13T11:48:26;9.18;;;7.30;;
37633;SDS011;32048;49.902;22.508;2023-07-13T11:50:59;11.02;;;7.55;;
37633;SDS011;32048;49.902;22.508;2023-07-13T11:53:38;8.85;;;7.72;;
37633;SDS011;32048;49.902;22.508;2023-07-13T11:56:07;9.20;;;8.20;;
37633;SDS011;32048;49.902;22.508;2023-07-13T11:58:35;9.43;;;7.07;;
37633;SDS011;32048;49.902;22.508;2023-07-13T12:01:02;10.27;;;7.93;;
37633;SDS011;32048;49.902;22.508;2023-07-13T12:03:33;9.55;;;8.55;;
37633;SDS011;32048;49.902;22.508;2023-07-13T12:06:03;11.30;;;8.40;;
37633;SDS011;32048;49.902;22.508;2023-07-13T12:08:38;11.25;;;9.50;;
37633;SDS011;32048;49.902;22.508;2023-07-13T12:11:13;13.23;;;9.55;;
37633;SDS011;32048;49.902;22.508;2023-07-13T12:13:44;11.95;;;10.30;;
37633;SDS011;32048;49.902;22.508;2023-07-13T12:16:22;12.07;;;10.63;;
37633;SDS011;32048;49.902;22.508;2023-07-13T12:18:52;12.77;;;10.73;;
37633;SDS011;32048;49.902;22.508;2023-07-13T12:21:29;13.40;;;11.88;;
37633;SDS011;32048;49.902;22.508;2023-07-13T12:23:58;12.88;;;11.43;;
37633;SDS011;32048;49.902;22.508;2023-07-13T12:26:29;13.23;;;11.32;;
37633;SDS011;32048;49.902;22.508;2023-07-13T12:28:59;12.38;;;11.07;;
37633;SDS011;32048;49.902;22.508;2023-07-13T12:33:57;14.27;;;12.90;;
37633;SDS011;32048;49.902;22.508;2023-07-13T12:36:40;13.88;;;12.40;;
37633;SDS011;32048;49.902;22.508;2023-07-13T12:39:15;14.75;;;13.18;;
37633;SDS011;32048;49.902;22.508;2023-07-13T12:41:48;16.23;;;12.85;;
37633;SDS011;32048;49.902;22.508;2023-07-13T12:44:26;14.73;;;12.45;;
37633;SDS011;32048;49.902;22.508;2023-07-13T12:47:02;14.18;;;12.60;;
37633;SDS011;32048;49.902;22.508;2023-07-13T12:49:33;10.70;;;9.60;;
37633;SDS011;32048;49.902;22.508;2023-07-13T12:54:30;12.57;;;6.80;;
37633;SDS011;32048;49.902;22.508;2023-07-13T12:56:58;7.97;;;5.78;;
37633;SDS011;32048;49.902;22.508;2023-07-13T12:59:29;5.63;;;3.90;;
37633;SDS011;32048;49.902;22.508;2023-07-13T13:01:59;7.65;;;4.90;;
37633;SDS011;32048;49.902;22.508;2023-07-13T13:04:27;7.30;;;3.97;;
37633;SDS011;32048;49.902;22.508;2023-07-13T13:07:03;8.75;;;4.30;;
37633;SDS011;32048;49.902;22.508;2023-07-13T13:09:33;7.07;;;4.65;;
37633;SDS011;32048;49.902;22.508;2023-07-13T13:12:00;7.13;;;4.80;;
37633;SDS011;32048;49.902;22.508;2023-07-13T13:14:27;8.18;;;4.90;;
37633;SDS011;32048;49.902;22.508;2023-07-13T13:16:54;10.52;;;5.32;;
37633;SDS011;32048;49.902;22.508;2023-07-13T13:19:25;7.97;;;5.55;;
37633;SDS011;32048;49.902;22.508;2023-07-13T13:21:55;8.90;;;5.88;;
37633;SDS011;32048;49.902;22.508;2023-07-13T13:24:25;13.43;;;9.95;;
37633;SDS011;32048;49.902;22.508;2023-07-13T13:26:54;11.30;;;7.93;;
37633;SDS011;32048;49.902;22.508;2023-07-13T13:29:24;9.45;;;5.82;;
37633;SDS011;32048;49.902;22.508;2023-07-13T13:31:53;8.25;;;5.47;;
37633;SDS011;32048;49.902;22.508;2023-07-13T13:34:21;7.95;;;5.82;;
37633;SDS011;32048;49.902;22.508;2023-07-13T13:36:53;8.27;;;4.80;;
37633;SDS011;32048;49.902;22.508;2023-07-13T13:39:33;6.65;;;5.03;;
37633;SDS011;32048;49.902;22.508;2023-07-13T13:42:01;7.53;;;5.43;;
37633;SDS011;32048;49.902;22.508;2023-07-13T13:44:29;9.52;;;5.68;;
37633;SDS011;32048;49.902;22.508;2023-07-13T13:46:57;6.22;;;4.82;;
37633;SDS011;32048;49.902;22.508;2023-07-13T13:49:25;7.10;;;4.75;;
37633;SDS011;32048;49.902;22.508;2023-07-13T13:51:53;5.20;;;4.45;;
37633;SDS011;32048;49.902;22.508;2023-07-13T13:54:21;5.43;;;4.72;;
37633;SDS011;32048;49.902;22.508;2023-07-13T13:56:50;6.13;;;4.15;;
37633;SDS011;32048;49.902;22.508;2023-07-13T13:59:19;6.80;;;4.30;;
37633;SDS011;32048;49.902;22.508;2023-07-13T14:01:47;6.63;;;3.90;;
37633;SDS011;32048;49.902;22.508;2023-07-13T14:04:17;6.43;;;4.90;;
37633;SDS011;32048;49.902;22.508;2023-07-13T14:06:45;6.82;;;5.38;;
37633;SDS011;32048;49.902;22.508;2023-07-13T14:09:15;8.57;;;6.00;;
37633;SDS011;32048;49.902;22.508;2023-07-13T14:11:45;9.45;;;6.88;;
37633;SDS011;32048;49.902;22.508;2023-07-13T14:14:23;7.57;;;5.78;;
37633;SDS011;32048;49.902;22.508;2023-07-13T14:16:53;6.75;;;5.60;;
37633;SDS011;32048;49.902;22.508;2023-07-13T14:19:23;5.20;;;4.70;;
37633;SDS011;32048;49.902;22.508;2023-07-13T14:21:50;7.88;;;5.47;;
37633;SDS011;32048;49.902;22.508;2023-07-13T14:24:21;7.32;;;6.18;;
37633;SDS011;32048;49.902;22.508;2023-07-13T14:26:48;8.43;;;5.50;;
37633;SDS011;32048;49.902;22.508;2023-07-13T14:29:16;8.60;;;4.70;;
37633;SDS011;32048;49.902;22.508;2023-07-13T14:31:50;6.32;;;5.15;;
37633;SDS011;32048;49.902;22.508;2023-07-13T14:34:18;6.57;;;5.07;;
37633;SDS011;32048;49.902;22.508;2023-07-13T14:36:46;6.45;;;5.78;;
37633;SDS011;32048;49.902;22.508;2023-07-13T14:39:17;15.95;;;6.68;;
37633;SDS011;32048;49.902;22.508;2023-07-13T14:41:50;12.20;;;6.00;;
37633;SDS011;32048;49.902;22.508;2023-07-13T14:44:21;11.70;;;5.45;;
37633;SDS011;32048;49.902;22.508;2023-07-13T14:46:50;10.70;;;5.45;;
37633;SDS011;32048;49.902;22.508;2023-07-13T14:49:29;9.48;;;5.70;;
37633;SDS011;32048;49.902;22.508;2023-07-13T14:52:18;8.45;;;5.53;;
37633;SDS011;32048;49.902;22.508;2023-07-13T14:54:51;7.20;;;5.43;;
37633;SDS011;32048;49.902;22.508;2023-07-13T14:57:19;9.02;;;5.90;;
37633;SDS011;32048;49.902;22.508;2023-07-13T14:59:47;8.47;;;4.67;;
37633;SDS011;32048;49.902;22.508;2023-07-13T15:02:16;9.00;;;4.93;;
37633;SDS011;32048;49.902;22.508;2023-07-13T15:05:01;6.38;;;5.05;;
37633;SDS011;32048;49.902;22.508;2023-07-13T15:07:31;7.18;;;4.45;;
37633;SDS011;32048;49.902;22.508;2023-07-13T15:10:00;6.28;;;4.43;;
37633;SDS011;32048;49.902;22.508;2023-07-13T15:12:27;6.18;;;4.50;;
37633;SDS011;32048;49.902;22.508;2023-07-13T15:14:55;4.63;;;4.05;;
37633;SDS011;32048;49.902;22.508;2023-07-13T15:17:32;7.85;;;4.68;;
37633;SDS011;32048;49.902;22.508;2023-07-13T15:22:59;9.73;;;4.38;;
37633;SDS011;32048;49.902;22.508;2023-07-13T15:25:28;5.75;;;4.28;;
37633;SDS011;32048;49.902;22.508;2023-07-13T15:27:57;6.72;;;3.78;;
37633;SDS011;32048;49.902;22.508;2023-07-13T15:30:25;7.43;;;4.50;;
37633;SDS011;32048;49.902;22.508;2023-07-13T15:32:58;6.50;;;4.15;;
37633;SDS011;32048;49.902;22.508;2023-07-13T15:35:33;8.43;;;4.35;;
37633;SDS011;32048;49.902;22.508;2023-07-13T15:38:00;7.65;;;4.65;;
37633;SDS011;32048;49.902;22.508;2023-07-13T15:40:28;4.97;;;4.20;;
37633;SDS011;32048;49.902;22.508;2023-07-13T15:42:55;6.53;;;4.97;;
37633;SDS011;32048;49.902;22.508;2023-07-13T15:45:23;10.98;;;6.15;;
37633;SDS011;32048;49.902;22.508;2023-07-13T15:47:54;8.88;;;5.22;;
37633;SDS011;32048;49.902;22.508;2023-07-13T15:50:23;8.88;;;5.25;;
37633;SDS011;32048;49.902;22.508;2023-07-13T15:52:52;10.20;;;5.65;;
37633;SDS011;32048;49.902;22.508;2023-07-13T15:55:21;7.07;;;5.40;;
37633;SDS011;32048;49.902;22.508;2023-07-13T15:57:49;11.48;;;5.30;;
37633;SDS011;32048;49.902;22.508;2023-07-13T16:02:47;8.07;;;5.53;;